sensor_id;sensor_type;location;lat;lon;timestamp;pressure;altitude;pressure_sealevel;temperature;humidity
74169;BME280;62523;53.336;83.690;2023-04-03T00:02:25;101261.88;;;-8.35;54.74
74169;BME280;62523;53.336;83.690;2023-04-03T00:07:26;101301.09;;;-8.18;55.17
74169;BME280;62523;53.336;83.690;2023-04-03T00:12:27;101296.63;;;-8.39;54.98
74169;BME280;62523;53.336;83.690;2023-04-03T00:17:28;101305.94;;;-8.07;54.97
74169;BME280;62523;53.336;83.690;2023-04-03T00:22:29;101314.41;;;-7.91;55.26
74169;BME280;62523;53.336;83.690;2023-04-03T00:27:30;101309.94;;;-7.61;56.51
74169;BME280;62523;53.336;83.690;2023-04-03T00:32:32;101301.81;;;-7.34;54.86
74169;BME280;62523;53.336;83.690;2023-04-03T00:37:33;101327.03;;;-7.42;55.05
74169;BME280;62523;53.336;83.690;2023-04-03T00:42:35;101320.13;;;-7.27;56.41
74169;BME280;62523;53.336;83.690;2023-04-03T00:47:38;101326.25;;;-7.05;55.97
74169;BME280;62523;53.336;83.690;2023-04-03T00:52:41;101315.66;;;-3.96;49.01
74169;BME280;62523;53.336;83.690;2023-04-03T00:57:42;101318.44;;;-1.57;41.99
74169;BME280;62523;53.336;83.690;2023-04-03T01:02:44;101317.00;;;-3.02;43.19
74169;BME280;62523;53.336;83.690;2023-04-03T01:07:45;101321.81;;;-4.17;48.16
74169;BME280;62523;53.336;83.690;2023-04-03T01:12:49;101323.94;;;-3.79;46.20
74169;BME280;62523;53.336;83.690;2023-04-03T01:17:53;101313.69;;;-3.25;44.12
74169;BME280;62523;53.336;83.690;2023-04-03T01:28:24;101325.13;;;-3.95;41.69
74169;BME280;62523;53.336;83.690;2023-04-03T01:33:26;101296.16;;;-4.84;43.24
74169;BME280;62523;53.336;83.690;2023-04-03T01:38:27;101282.22;;;-5.78;45.22
74169;BME280;62523;53.336;83.690;2023-04-03T01:43:28;101336.72;;;-5.43;46.85
74169;BME280;62523;53.336;83.690;2023-04-03T01:48:29;101341.53;;;-5.30;47.24
74169;BME280;62523;53.336;83.690;2023-04-03T01:53:30;101327.31;;;-5.43;47.16
74169;BME280;62523;53.336;83.690;2023-04-03T01:58:32;101336.63;;;-5.24;45.67
74169;BME280;62523;53.336;83.690;2023-04-03T02:03:33;101327.03;;;-5.07;45.62
74169;BME280;62523;53.336;83.690;2023-04-03T02:08:34;101325.34;;;-4.84;44.90
74169;BME280;62523;53.336;83.690;2023-04-03T02:13:35;101324.88;;;-4.74;44.06
74169;BME280;62523;53.336;83.690;2023-04-03T02:18:37;101318.16;;;-4.70;43.43
74169;BME280;62523;53.336;83.690;2023-04-03T02:23:38;101324.47;;;-4.38;43.14
74169;BME280;62523;53.336;83.690;2023-04-03T02:28:39;101317.00;;;-4.32;42.10
74169;BME280;62523;53.336;83.690;2023-04-03T02:33:41;101305.06;;;-4.29;42.27
74169;BME280;62523;53.336;83.690;2023-04-03T02:38:42;101305.13;;;-4.02;42.61
74169;BME280;62523;53.336;83.690;2023-04-03T02:43:43;101304.84;;;-3.60;41.85
74169;BME280;62523;53.336;83.690;2023-04-03T02:48:45;101309.38;;;-3.53;40.49
74169;BME280;62523;53.336;83.690;2023-04-03T02:53:46;101299.09;;;-3.26;40.03
74169;BME280;62523;53.336;83.690;2023-04-03T02:58:47;101306.31;;;-3.14;39.64
74169;BME280;62523;53.336;83.690;2023-04-03T03:03:49;101305.38;;;-3.16;40.22
74169;BME280;62523;53.336;83.690;2023-04-03T03:08:50;101300.22;;;-2.29;38.85
74169;BME280;62523;53.336;83.690;2023-04-03T03:13:51;101304.97;;;-2.44;37.92
74169;BME280;62523;53.336;83.690;2023-04-03T03:18:52;101296.94;;;-2.83;37.09
74169;BME280;62523;53.336;83.690;2023-04-03T03:23:53;101309.13;;;-2.49;36.52
74169;BME280;62523;53.336;83.690;2023-04-03T03:28:54;101316.63;;;-2.27;34.77
74169;BME280;62523;53.336;83.690;2023-04-03T03:33:56;101295.81;;;-2.01;34.76
74169;BME280;62523;53.336;83.690;2023-04-03T03:38:57;101316.84;;;-1.87;33.97
74169;BME280;62523;53.336;83.690;2023-04-03T03:43:58;101318.19;;;-1.68;36.48
74169;BME280;62523;53.336;83.690;2023-04-03T03:48:59;101302.94;;;-1.92;34.96
74169;BME280;62523;53.336;83.690;2023-04-03T03:54:01;101303.78;;;-1.58;34.29
74169;BME280;62523;53.336;83.690;2023-04-03T03:59:02;101310.03;;;-1.50;33.34
74169;BME280;62523;53.336;83.690;2023-04-03T04:04:03;101300.63;;;-0.72;34.92
74169;BME280;62523;53.336;83.690;2023-04-03T04:09:05;101294.47;;;-0.76;34.71
74169;BME280;62523;53.336;83.690;2023-04-03T04:14:06;101285.94;;;-0.72;33.92
74169;BME280;62523;53.336;83.690;2023-04-03T04:19:07;101289.56;;;-0.64;32.01
74169;BME280;62523;53.336;83.690;2023-04-03T04:24:09;101276.13;;;-0.87;31.90
74169;BME280;62523;53.336;83.690;2023-04-03T04:29:10;101256.06;;;-0.57;31.70
74169;BME280;62523;53.336;83.690;2023-04-03T04:34:11;101267.59;;;0.06;32.23
74169;BME280;62523;53.336;83.690;2023-04-03T04:39:13;101285.56;;;-0.04;31.35
74169;BME280;62523;53.336;83.690;2023-04-03T04:44:14;101273.34;;;0.38;30.54
74169;BME280;62523;53.336;83.690;2023-04-03T04:49:16;101272.25;;;0.25;28.68
74169;BME280;62523;53.336;83.690;2023-04-03T04:54:17;101261.06;;;0.28;28.79
74169;BME280;62523;53.336;83.690;2023-04-03T04:59:19;101260.38;;;0.38;29.11
74169;BME280;62523;53.336;83.690;2023-04-03T05:04:21;101267.50;;;0.50;28.00
74169;BME280;62523;53.336;83.690;2023-04-03T05:09:22;101250.69;;;0.26;28.80
74169;BME280;62523;53.336;83.690;2023-04-03T05:14:23;101203.22;;;0.30;27.91
74169;BME280;62523;53.336;83.690;2023-04-03T05:19:25;101201.84;;;0.55;28.40
74169;BME280;62523;53.336;83.690;2023-04-03T05:24:26;101219.91;;;1.09;29.98
74169;BME280;62523;53.336;83.690;2023-04-03T05:29:28;101168.72;;;0.97;29.70
74169;BME280;62523;53.336;83.690;2023-04-03T05:34:29;101176.41;;;0.91;28.99
74169;BME280;62523;53.336;83.690;2023-04-03T05:39:30;101218.06;;;1.75;29.62
74169;BME280;62523;53.336;83.690;2023-04-03T05:44:33;101196.88;;;1.36;29.83
74169;BME280;62523;53.336;83.690;2023-04-03T05:49:34;101238.31;;;1.27;29.07
74169;BME280;62523;53.336;83.690;2023-04-03T05:54:36;101216.34;;;1.02;29.19
74169;BME280;62523;53.336;83.690;2023-04-03T05:59:37;101217.63;;;2.22;29.43
74169;BME280;62523;53.336;83.690;2023-04-03T06:04:39;101179.44;;;2.13;29.12
74169;BME280;62523;53.336;83.690;2023-04-03T06:09:40;101204.34;;;1.91;29.84
74169;BME280;62523;53.336;83.690;2023-04-03T06:14:41;101140.22;;;1.89;29.24
74169;BME280;62523;53.336;83.690;2023-04-03T06:19:44;101185.16;;;1.78;28.95
74169;BME280;62523;53.336;83.690;2023-04-03T06:24:45;101171.72;;;2.30;28.42
74169;BME280;62523;53.336;83.690;2023-04-03T06:29:47;101177.31;;;2.96;27.55
74169;BME280;62523;53.336;83.690;2023-04-03T06:34:50;101127.63;;;2.49;28.69
74169;BME280;62523;53.336;83.690;2023-04-03T06:39:52;101181.50;;;2.63;29.05
74169;BME280;62523;53.336;83.690;2023-04-03T06:44:53;101171.03;;;2.56;30.04
74169;BME280;62523;53.336;83.690;2023-04-03T06:49:54;101144.03;;;2.34;29.01
74169;BME280;62523;53.336;83.690;2023-04-03T06:54:55;101073.78;;;2.29;29.33
74169;BME280;62523;53.336;83.690;2023-04-03T07:00:00;101072.00;;;2.17;27.47
74169;BME280;62523;53.336;83.690;2023-04-03T07:05:02;101125.97;;;2.58;27.18
74169;BME280;62523;53.336;83.690;2023-04-03T07:10:05;101164.19;;;2.70;26.39
74169;BME280;62523;53.336;83.690;2023-04-03T07:15:08;101047.75;;;2.24;29.39
74169;BME280;62523;53.336;83.690;2023-04-03T07:20:10;101118.19;;;2.71;28.40
74169;BME280;62523;53.336;83.690;2023-04-03T07:25:11;101164.28;;;2.87;28.74
74169;BME280;62523;53.336;83.690;2023-04-03T07:30:13;101060.03;;;2.55;27.71
74169;BME280;62523;53.336;83.690;2023-04-03T07:35:14;101151.38;;;3.10;26.73
74169;BME280;62523;53.336;83.690;2023-04-03T07:40:17;101128.81;;;3.29;29.17
74169;BME280;62523;53.336;83.690;2023-04-03T07:45:20;101169.63;;;3.16;29.84
74169;BME280;62523;53.336;83.690;2023-04-03T07:50:23;101065.38;;;2.92;31.19
74169;BME280;62523;53.336;83.690;2023-04-03T07:55:25;101087.00;;;2.74;31.46
74169;BME280;62523;53.336;83.690;2023-04-03T08:00:27;101104.47;;;3.12;32.29
74169;BME280;62523;53.336;83.690;2023-04-03T08:05:30;101143.56;;;3.18;31.83
74169;BME280;62523;53.336;83.690;2023-04-03T08:10:32;101063.56;;;2.71;31.99
74169;BME280;62523;53.336;83.690;2023-04-03T08:15:33;101087.06;;;2.98;30.24
74169;BME280;62523;53.336;83.690;2023-04-03T08:20:35;101107.16;;;3.38;31.64
74169;BME280;62523;53.336;83.690;2023-04-03T08:25:43;101132.41;;;3.79;29.32
74169;BME280;62523;53.336;83.690;2023-04-03T08:30:45;101071.44;;;2.84;30.92
74169;BME280;62523;53.336;83.690;2023-04-03T08:35:46;101118.44;;;3.52;31.09
74169;BME280;62523;53.336;83.690;2023-04-03T08:40:59;101134.94;;;3.43;31.14
74169;BME280;62523;53.336;83.690;2023-04-03T08:46:03;101102.84;;;3.55;31.27
74169;BME280;62523;53.336;83.690;2023-04-03T08:51:18;101128.00;;;3.41;31.13
74169;BME280;62523;53.336;83.690;2023-04-03T08:56:21;101128.03;;;3.82;31.11
74169;BME280;62523;53.336;83.690;2023-04-03T09:01:33;101125.44;;;3.59;31.79
74169;BME280;62523;53.336;83.690;2023-04-03T09:06:36;101110.63;;;3.61;33.11
74169;BME280;62523;53.336;83.690;2023-04-03T09:17:03;101111.50;;;3.48;33.60
74169;BME280;62523;53.336;83.690;2023-04-03T09:27:13;101071.53;;;3.46;34.80
74169;BME280;62523;53.336;83.690;2023-04-03T09:32:32;101100.22;;;3.61;35.34
74169;BME280;62523;53.336;83.690;2023-04-03T09:37:45;101107.19;;;3.75;36.20
74169;BME280;62523;53.336;83.690;2023-04-03T09:42:47;101096.75;;;3.67;34.63
74169;BME280;62523;53.336;83.690;2023-04-03T09:47:49;101108.03;;;3.72;33.07
74169;BME280;62523;53.336;83.690;2023-04-03T09:53:06;101101.97;;;3.62;34.10
74169;BME280;62523;53.336;83.690;2023-04-03T09:58:25;101093.28;;;3.57;35.87
74169;BME280;62523;53.336;83.690;2023-04-03T10:03:34;101087.22;;;3.87;35.73
74169;BME280;62523;53.336;83.690;2023-04-03T10:08:36;101081.09;;;3.87;34.54
74169;BME280;62523;53.336;83.690;2023-04-03T10:13:50;101077.66;;;3.68;34.98
74169;BME280;62523;53.336;83.690;2023-04-03T10:19:11;101079.34;;;3.83;33.65
74169;BME280;62523;53.336;83.690;2023-04-03T10:29:27;101076.75;;;3.63;34.96
74169;BME280;62523;53.336;83.690;2023-04-03T10:34:33;101088.94;;;3.59;34.84
74169;BME280;62523;53.336;83.690;2023-04-03T10:39:59;101082.88;;;3.68;33.90
74169;BME280;62523;53.336;83.690;2023-04-03T10:50:22;101088.94;;;3.56;35.06
74169;BME280;62523;53.336;83.690;2023-04-03T11:00:48;101070.69;;;3.64;34.23
74169;BME280;62523;53.336;83.690;2023-04-03T11:05:52;101083.72;;;3.62;34.19
74169;BME280;62523;53.336;83.690;2023-04-03T11:11:00;101076.78;;;3.75;35.26
74169;BME280;62523;53.336;83.690;2023-04-03T11:16:04;101068.97;;;3.55;34.48
74169;BME280;62523;53.336;83.690;2023-04-03T11:26:40;101074.16;;;3.69;28.99
74169;BME280;62523;53.336;83.690;2023-04-03T11:31:56;101082.88;;;3.68;29.97
74169;BME280;62523;53.336;83.690;2023-04-03T11:37:29;101080.25;;;3.57;30.33
74169;BME280;62523;53.336;83.690;2023-04-03T11:42:40;101078.47;;;3.33;31.81
74169;BME280;62523;53.336;83.690;2023-04-03T11:47:49;101068.94;;;3.34;31.55
74169;BME280;62523;53.336;83.690;2023-04-03T12:02:58;101037.66;;;3.24;30.39
74169;BME280;62523;53.336;83.690;2023-04-03T12:13:33;101065.41;;;3.07;31.74
74169;BME280;62523;53.336;83.690;2023-04-03T12:29:21;101060.13;;;2.78;32.57
74169;BME280;62523;53.336;83.690;2023-04-03T12:40:16;101059.19;;;2.60;33.66
74169;BME280;62523;53.336;83.690;2023-04-03T12:45:23;101055.66;;;2.41;33.41
74169;BME280;62523;53.336;83.690;2023-04-03T12:50:29;101048.59;;;2.23;34.80
74169;BME280;62523;53.336;83.690;2023-04-03T12:55:32;101054.59;;;2.10;35.29
74169;BME280;62523;53.336;83.690;2023-04-03T13:00:34;101060.53;;;1.91;36.99
74169;BME280;62523;53.336;83.690;2023-04-03T13:05:35;101059.66;;;1.89;37.37
74169;BME280;62523;53.336;83.690;2023-04-03T13:10:51;101052.56;;;1.69;39.60
74169;BME280;62523;53.336;83.690;2023-04-03T13:15:53;101060.16;;;1.43;40.32
74169;BME280;62523;53.336;83.690;2023-04-03T13:21:10;101068.59;;;1.20;41.11
74169;BME280;62523;53.336;83.690;2023-04-03T13:26:12;101072.25;;;1.38;40.54
74169;BME280;62523;53.336;83.690;2023-04-03T13:31:22;101053.53;;;0.87;41.20
74169;BME280;62523;53.336;83.690;2023-04-03T13:36:32;101078.16;;;1.23;40.33
74169;BME280;62523;53.336;83.690;2023-04-03T13:41:36;101061.25;;;0.81;40.08
74169;BME280;62523;53.336;83.690;2023-04-03T13:46:38;101050.81;;;0.75;39.87
74169;BME280;62523;53.336;83.690;2023-04-03T13:51:39;101082.97;;;0.86;39.84
74169;BME280;62523;53.336;83.690;2023-04-03T13:56:41;101076.66;;;0.67;39.49
74169;BME280;62523;53.336;83.690;2023-04-03T14:07:03;101086.72;;;0.43;40.00
74169;BME280;62523;53.336;83.690;2023-04-03T14:12:12;101090.44;;;0.63;40.24
74169;BME280;62523;53.336;83.690;2023-04-03T14:17:21;101079.72;;;0.35;40.94
74169;BME280;62523;53.336;83.690;2023-04-03T14:22:32;101081.31;;;0.27;40.86
74169;BME280;62523;53.336;83.690;2023-04-03T14:27:40;101080.63;;;0.37;41.35
74169;BME280;62523;53.336;83.690;2023-04-03T14:32:42;101084.34;;;-0.03;42.34
74169;BME280;62523;53.336;83.690;2023-04-03T14:37:44;101081.56;;;-0.17;42.66
74169;BME280;62523;53.336;83.690;2023-04-03T14:42:45;101088.00;;;0.10;42.24
74169;BME280;62523;53.336;83.690;2023-04-03T14:47:51;101071.59;;;0.09;41.74
74169;BME280;62523;53.336;83.690;2023-04-03T14:52:56;101091.03;;;-0.17;43.17
74169;BME280;62523;53.336;83.690;2023-04-03T14:57:58;101070.16;;;-0.27;42.96
74169;BME280;62523;53.336;83.690;2023-04-03T15:03:00;101076.44;;;-0.11;43.30
74169;BME280;62523;53.336;83.690;2023-04-03T15:08:01;101087.06;;;0.05;43.06
74169;BME280;62523;53.336;83.690;2023-04-03T15:13:02;101091.91;;;-0.17;43.25
74169;BME280;62523;53.336;83.690;2023-04-03T15:18:04;101088.41;;;-0.21;44.07
74169;BME280;62523;53.336;83.690;2023-04-03T15:23:05;101067.50;;;-0.31;43.99
74169;BME280;62523;53.336;83.690;2023-04-03T15:28:11;101067.47;;;-0.33;43.95
74169;BME280;62523;53.336;83.690;2023-04-03T15:33:18;101068.53;;;-0.20;43.72
74169;BME280;62523;53.336;83.690;2023-04-03T15:38:20;101072.69;;;-0.31;44.13
74169;BME280;62523;53.336;83.690;2023-04-03T15:43:22;101068.16;;;-0.43;43.66
74169;BME280;62523;53.336;83.690;2023-04-03T15:48:23;101053.38;;;-0.50;44.33
74169;BME280;62523;53.336;83.690;2023-04-03T15:53:25;101075.28;;;-0.31;44.17
74169;BME280;62523;53.336;83.690;2023-04-03T15:58:26;101066.25;;;-0.55;44.64
74169;BME280;62523;53.336;83.690;2023-04-03T16:03:27;101071.56;;;-0.46;44.00
74169;BME280;62523;53.336;83.690;2023-04-03T16:08:28;101067.97;;;-0.54;44.87
74169;BME280;62523;53.336;83.690;2023-04-03T16:13:30;101063.59;;;-0.59;45.21
74169;BME280;62523;53.336;83.690;2023-04-03T16:18:31;101070.03;;;-0.85;45.26
74169;BME280;62523;53.336;83.690;2023-04-03T16:23:35;101057.19;;;-0.80;45.65
74169;BME280;62523;53.336;83.690;2023-04-03T16:28:36;101041.63;;;-0.83;45.41
74169;BME280;62523;53.336;83.690;2023-04-03T16:33:37;101048.53;;;-0.82;45.88
74169;BME280;62523;53.336;83.690;2023-04-03T16:38:38;101022.47;;;-0.93;45.45
74169;BME280;62523;53.336;83.690;2023-04-03T16:43:40;101036.69;;;-0.68;45.01
74169;BME280;62523;53.336;83.690;2023-04-03T16:48:41;101025.94;;;-0.91;45.17
74169;BME280;62523;53.336;83.690;2023-04-03T16:53:42;101028.09;;;-0.67;45.53
74169;BME280;62523;53.336;83.690;2023-04-03T16:58:43;101018.38;;;-0.80;45.44
74169;BME280;62523;53.336;83.690;2023-04-03T17:03:46;101028.63;;;-0.85;45.67
74169;BME280;62523;53.336;83.690;2023-04-03T17:08:49;101024.34;;;-0.84;45.92
74169;BME280;62523;53.336;83.690;2023-04-03T17:13:50;101017.47;;;-0.84;46.02
74169;BME280;62523;53.336;83.690;2023-04-03T17:18:52;101026.72;;;-0.95;46.41
74169;BME280;62523;53.336;83.690;2023-04-03T17:23:58;101016.53;;;-0.87;46.58
74169;BME280;62523;53.336;83.690;2023-04-03T17:28:59;101003.38;;;-0.99;46.42
74169;BME280;62523;53.336;83.690;2023-04-03T17:34:00;100999.16;;;-0.94;46.69
74169;BME280;62523;53.336;83.690;2023-04-03T17:39:02;101005.13;;;-0.97;46.71
74169;BME280;62523;53.336;83.690;2023-04-03T17:44:04;101002.41;;;-1.06;47.02
74169;BME280;62523;53.336;83.690;2023-04-03T17:49:05;101005.66;;;-1.16;46.62
74169;BME280;62523;53.336;83.690;2023-04-03T17:54:07;101004.06;;;-1.10;46.72
74169;BME280;62523;53.336;83.690;2023-04-03T17:59:08;101000.94;;;-0.92;46.44
74169;BME280;62523;53.336;83.690;2023-04-03T18:04:10;100986.94;;;-1.01;46.43
74169;BME280;62523;53.336;83.690;2023-04-03T18:09:15;100990.31;;;-1.07;46.48
74169;BME280;62523;53.336;83.690;2023-04-03T18:14:21;100978.59;;;-1.35;47.37
74169;BME280;62523;53.336;83.690;2023-04-03T18:19:23;100980.50;;;-1.25;47.07
74169;BME280;62523;53.336;83.690;2023-04-03T18:24:25;100952.75;;;-1.35;47.58
74169;BME280;62523;53.336;83.690;2023-04-03T18:29:32;100967.88;;;-1.08;46.10
74169;BME280;62523;53.336;83.690;2023-04-03T18:34:34;100979.78;;;-1.18;46.78
74169;BME280;62523;53.336;83.690;2023-04-03T18:39:35;100973.78;;;-1.15;46.83
74169;BME280;62523;53.336;83.690;2023-04-03T18:44:37;100981.41;;;-1.23;47.53
74169;BME280;62523;53.336;83.690;2023-04-03T18:49:40;100971.03;;;-1.25;47.26
74169;BME280;62523;53.336;83.690;2023-04-03T18:54:42;100968.50;;;-1.21;47.19
74169;BME280;62523;53.336;83.690;2023-04-03T18:59:44;100970.25;;;-1.20;46.74
74169;BME280;62523;53.336;83.690;2023-04-03T19:04:45;100958.72;;;-1.39;47.47
74169;BME280;62523;53.336;83.690;2023-04-03T19:09:47;100970.88;;;-1.32;47.62
74169;BME280;62523;53.336;83.690;2023-04-03T19:14:48;100963.72;;;-1.47;48.49
74169;BME280;62523;53.336;83.690;2023-04-03T19:19:49;100973.19;;;-1.48;47.99
74169;BME280;62523;53.336;83.690;2023-04-03T19:24:50;100959.16;;;-1.60;48.27
74169;BME280;62523;53.336;83.690;2023-04-03T19:29:51;100963.31;;;-1.69;49.20
74169;BME280;62523;53.336;83.690;2023-04-03T19:34:52;100961.91;;;-1.51;48.49
74169;BME280;62523;53.336;83.690;2023-04-03T19:39:54;100954.03;;;-1.59;48.80
74169;BME280;62523;53.336;83.690;2023-04-03T19:44:55;100926.13;;;-1.75;49.07
74169;BME280;62523;53.336;83.690;2023-04-03T19:49:57;100951.81;;;-1.84;49.52
74169;BME280;62523;53.336;83.690;2023-04-03T19:54:58;100939.91;;;-1.76;49.42
74169;BME280;62523;53.336;83.690;2023-04-03T19:59:59;100943.91;;;-1.91;49.95
74169;BME280;62523;53.336;83.690;2023-04-03T20:05:00;100944.34;;;-1.69;48.92
74169;BME280;62523;53.336;83.690;2023-04-03T20:10:03;100928.69;;;-1.78;49.15
74169;BME280;62523;53.336;83.690;2023-04-03T20:15:04;100947.66;;;-1.76;48.91
74169;BME280;62523;53.336;83.690;2023-04-03T20:20:07;100945.66;;;-1.90;49.67
74169;BME280;62523;53.336;83.690;2023-04-03T20:25:10;100946.28;;;-2.01;50.75
74169;BME280;62523;53.336;83.690;2023-04-03T20:30:13;100942.06;;;-1.96;50.25
74169;BME280;62523;53.336;83.690;2023-04-03T20:35:14;100940.13;;;-2.08;49.94
74169;BME280;62523;53.336;83.690;2023-04-03T20:40:15;100939.19;;;-2.12;50.32
74169;BME280;62523;53.336;83.690;2023-04-03T20:45:17;100934.97;;;-2.07;50.14
74169;BME280;62523;53.336;83.690;2023-04-03T20:50:21;100927.38;;;-1.99;49.63
74169;BME280;62523;53.336;83.690;2023-04-03T20:55:22;100933.31;;;-2.03;49.39
74169;BME280;62523;53.336;83.690;2023-04-03T21:00:24;100920.50;;;-2.00;49.42
74169;BME280;62523;53.336;83.690;2023-04-03T21:05:25;100923.78;;;-2.07;48.87
74169;BME280;62523;53.336;83.690;2023-04-03T21:21:22;100909.72;;;-2.20;49.07
74169;BME280;62523;53.336;83.690;2023-04-03T21:26:25;100917.19;;;-2.34;49.83
74169;BME280;62523;53.336;83.690;2023-04-03T21:32:02;100906.56;;;-2.48;49.44
74169;BME280;62523;53.336;83.690;2023-04-03T21:37:05;100918.16;;;-2.29;49.32
74169;BME280;62523;53.336;83.690;2023-04-03T21:42:07;100917.38;;;-2.24;49.36
74169;BME280;62523;53.336;83.690;2023-04-03T21:47:08;100914.06;;;-2.19;49.05
74169;BME280;62523;53.336;83.690;2023-04-03T21:52:09;100916.56;;;-2.22;49.24
74169;BME280;62523;53.336;83.690;2023-04-03T21:57:10;100906.28;;;-2.20;48.63
74169;BME280;62523;53.336;83.690;2023-04-03T22:02:11;100906.94;;;-2.31;48.76
74169;BME280;62523;53.336;83.690;2023-04-03T22:07:12;100910.78;;;-2.12;47.64
74169;BME280;62523;53.336;83.690;2023-04-03T22:12:14;100903.84;;;-2.14;47.79
74169;BME280;62523;53.336;83.690;2023-04-03T22:17:15;100902.97;;;-2.15;48.69
74169;BME280;62523;53.336;83.690;2023-04-03T22:22:16;100891.69;;;-2.18;48.26
74169;BME280;62523;53.336;83.690;2023-04-03T22:27:18;100917.91;;;-2.00;47.20
74169;BME280;62523;53.336;83.690;2023-04-03T22:32:20;100929.84;;;-2.05;47.92
74169;BME280;62523;53.336;83.690;2023-04-03T22:37:21;100918.44;;;-2.16;47.73
74169;BME280;62523;53.336;83.690;2023-04-03T22:42:22;100912.34;;;-2.18;48.93
74169;BME280;62523;53.336;83.690;2023-04-03T22:47:23;100916.16;;;-2.42;49.02
74169;BME280;62523;53.336;83.690;2023-04-03T22:52:24;100917.44;;;-2.62;49.78
74169;BME280;62523;53.336;83.690;2023-04-03T22:57:25;100920.78;;;-2.65;50.71
74169;BME280;62523;53.336;83.690;2023-04-03T23:02:26;100917.31;;;-2.67;50.43
74169;BME280;62523;53.336;83.690;2023-04-03T23:07:27;100906.81;;;-2.75;50.72
74169;BME280;62523;53.336;83.690;2023-04-03T23:12:28;100904.88;;;-2.47;50.12
74169;BME280;62523;53.336;83.690;2023-04-03T23:17:30;100909.41;;;-2.75;50.94
74169;BME280;62523;53.336;83.690;2023-04-03T23:22:32;100917.72;;;-2.86;50.96
74169;BME280;62523;53.336;83.690;2023-04-03T23:27:33;100921.78;;;-2.60;50.30
74169;BME280;62523;53.336;83.690;2023-04-03T23:32:34;100931.63;;;-2.80;50.95
74169;BME280;62523;53.336;83.690;2023-04-03T23:37:35;100931.59;;;-2.81;50.67
74169;BME280;62523;53.336;83.690;2023-04-03T23:42:36;100921.59;;;-2.68;50.79
74169;BME280;62523;53.336;83.690;2023-04-03T23:47:37;100921.31;;;-2.80;50.73
74169;BME280;62523;53.336;83.690;2023-04-03T23:52:39;100914.97;;;-2.56;50.78
74169;BME280;62523;53.336;83.690;2023-04-03T23:57:41;100887.00;;;-2.76;50.43
